Time;durP1;ratioP1;P1;durP2;ratioP2;P2;SDS_P1;SDS_P2;PMS_P1;PMS_P2;Temp;Humidity;BMP_temperature;BMP_pressure;BME280_temperature;BME280_humidity;BME280_pressure;Samples;Min_cycle;Max_cycle;Signal;HPM_P1;HPM_P2
2023/07/09 00:00:48;;;;;;;22.83;7.78;;;;;;;29.08;34.18;99021.03;5095922;28;20486;-71
2023/07/09 00:03:19;;;;;;;22.10;6.60;;;;;;;29.12;34.04;99027.56;5112828;28;20054;-70
2023/07/09 00:05:45;;;;;;;;;;;;;;;29.41;33.73;99028.28;5045983;28;20028;-70
2023/07/09 00:08:33;;;;;;;26.52;7.50;;;;;;;29.28;33.85;99034.47;5061872;28;19912;-70
2023/07/09 00:10:59;;;;;;;14.40;6.50;;;;;;;29.06;34.05;99027.94;5078977;28;20066;-70
2023/07/09 00:13:27;;;;;;;19.02;7.30;;;;;;;29.06;34.05;99023.25;5095733;28;20058;-71
2023/07/09 00:15:58;;;;;;;15.68;7.07;;;;;;;29.19;34.22;99019.81;5045464;28;20126;-70
2023/07/09 00:18:25;;;;;;;14.27;7.18;;;;;;;28.89;34.26;99020.16;5078698;28;20459;-71
2023/07/09 00:20:51;;;;;;;16.30;7.47;;;;;;;28.87;34.67;99013.34;5045191;28;20086;-72
2023/07/09 00:23:19;;;;;;;18.27;6.90;;;;;;;28.87;34.57;99013.34;5059119;28;20138;-71
2023/07/09 00:25:45;;;;;;;17.77;8.20;;;;;;;28.89;34.76;99014.69;5076477;28;20157;-71
2023/07/09 00:28:16;;;;;;;19.52;7.80;;;;;;;29.08;34.87;99007.38;5043489;28;20050;-71
2023/07/09 00:30:44;;;;;;;12.18;6.97;;;;;;;28.82;34.72;99011.50;5077337;28;20035;-71
2023/07/09 00:33:14;;;;;;;18.20;7.63;;;;;;;29.02;34.56;99008.53;5043339;28;20078;-70
2023/07/09 00:35:48;;;;;;;21.02;7.85;;;;;;;28.96;35.08;98998.75;5060875;28;20096;-71
2023/07/09 00:38:19;;;;;;;19.70;8.18;;;;;;;28.97;35.01;98997.63;5059780;28;20363;-70
2023/07/09 00:41:00;;;;;;;15.10;7.07;;;;;;;29.05;34.61;98997.03;5042739;28;20032;-70
2023/07/09 00:43:30;;;;;;;17.80;6.40;;;;;;;29.07;34.52;98988.53;5058866;28;20042;-71
2023/07/09 00:46:46;;;;;;;16.08;8.05;;;;;;;29.19;34.19;98991.63;5075629;28;20040;-71
2023/07/09 00:49:16;;;;;;;15.68;6.93;;;;;;;28.80;34.68;98986.38;5054444;28;20032;-71
2023/07/09 00:51:45;;;;;;;;;;;;;;;29.25;34.07;98987.72;5021889;28;20029;-71
2023/07/09 00:54:23;;;;;;;16.38;7.20;;;;;;;28.95;34.44;98961.59;5049986;28;19912;-70
2023/07/09 00:56:52;;;;;;;17.75;7.68;;;;;;;29.00;34.57;98977.13;5075962;28;20333;-71
2023/07/09 00:59:24;;;;;;;11.57;6.47;;;;;;;28.94;34.75;98976.34;5059547;28;20095;-70
2023/07/09 01:01:53;;;;;;;13.57;7.07;;;;;;;28.91;34.70;98976.13;5041894;28;20102;-70
2023/07/09 01:04:23;;;;;;;12.65;7.13;;;;;;;28.78;34.66;98979.56;5042084;28;20089;-70
2023/07/09 01:07:00;;;;;;;14.65;6.53;;;;;;;28.84;34.69;98968.28;5040498;28;20043;-70
2023/07/09 01:09:26;;;;;;;18.88;7.18;;;;;;;28.68;34.90;98980.50;5057372;28;20066;-70
2023/07/09 01:11:56;;;;;;;22.65;7.18;;;;;;;28.60;35.04;98978.41;5024393;28;20048;-70
2023/07/09 01:14:25;;;;;;;16.65;6.85;;;;;;;28.78;35.18;98974.94;5014190;28;20045;-70
2023/07/09 01:16:59;;;;;;;10.52;5.70;;;;;;;28.83;34.71;98966.66;4981861;28;20548;-70
2023/07/09 01:19:28;;;;;;;15.75;7.05;;;;;;;28.78;35.15;98976.84;4997771;28;20099;-70
2023/07/09 01:21:56;;;;;;;18.35;6.95;;;;;;;28.72;35.28;98981.56;4997623;28;20048;-70
2023/07/09 01:24:47;;;;;;;13.27;6.28;;;;;;;28.95;34.48;98979.91;4997552;28;20084;-70
2023/07/09 01:27:14;;;;;;;12.70;6.07;;;;;;;28.66;34.79;98970.97;4998034;28;20441;-71
2023/07/09 01:29:48;;;;;;;13.38;6.32;;;;;;;28.79;35.33;98965.59;4981861;28;20061;-70
2023/07/09 01:32:21;;;;;;;17.83;7.57;;;;;;;28.76;35.50;98968.09;4997621;28;20053;-71
2023/07/09 01:34:53;;;;;;;10.15;6.57;;;;;;;28.62;35.47;98978.94;4997700;28;20372;-70
2023/07/09 01:37:24;;;;;;;13.00;6.03;;;;;;;28.70;35.00;98967.38;5004165;28;20044;-70
2023/07/09 01:39:52;;;;;;;15.63;5.97;;;;;;;28.56;34.90;98968.34;5017600;28;20052;-71
2023/07/09 01:42:22;;;;;;;13.70;6.57;;;;;;;28.65;34.93;98967.41;5017581;28;20033;-71
2023/07/09 01:44:50;;;;;;;8.70;5.55;;;;;;;28.63;34.93;98969.63;5031161;28;20043;-71
2023/07/09 01:47:17;;;;;;;18.90;6.93;;;;;;;28.64;35.00;98957.59;5077079;28;20079;-71
2023/07/09 01:49:48;;;;;;;11.50;6.40;;;;;;;28.68;34.89;98958.63;5077869;28;20062;-70
2023/07/09 01:52:18;;;;;;;11.00;6.05;;;;;;;28.75;34.80;98971.97;5039070;28;20076;-70
2023/07/09 01:54:49;;;;;;;;;;;;;;;28.98;34.43;98974.66;5022799;28;20041;-70
2023/07/09 01:57:25;;;;;;;11.30;5.50;;;;;;;28.87;34.69;98969.63;5021991;28;19998;-71
2023/07/09 01:59:56;;;;;;;11.32;5.63;;;;;;;28.67;34.65;98967.13;5004271;28;20043;-70
2023/07/09 02:02:22;;;;;;;10.38;5.65;;;;;;;28.53;34.73;98967.03;5020455;28;20098;-70
2023/07/09 02:04:54;;;;;;;11.63;6.47;;;;;;;28.83;34.64;98968.59;5003571;28;20066;-70
2023/07/09 02:07:23;;;;;;;11.18;6.13;;;;;;;28.73;34.56;98950.38;5003610;28;20046;-70
2023/07/09 02:09:49;;;;;;;12.57;6.00;;;;;;;28.70;34.31;98972.84;5003970;28;20060;-71
2023/07/09 02:12:16;;;;;;;18.20;6.05;;;;;;;28.72;34.67;98975.28;5020279;28;20057;-70
2023/07/09 02:14:43;;;;;;;17.27;6.25;;;;;;;28.88;34.45;98973.97;5004017;28;20112;-70
2023/07/09 02:17:11;;;;;;;13.38;6.20;;;;;;;28.84;34.42;98960.09;5036668;28;20040;-70
2023/07/09 02:19:37;;;;;;;13.25;6.68;;;;;;;28.81;34.38;98982.53;5020175;28;20037;-70
2023/07/09 02:22:04;;;;;;;17.13;6.93;;;;;;;28.92;34.46;98975.81;5022106;28;20360;-70
2023/07/09 02:24:31;;;;;;;13.68;6.63;;;;;;;28.91;34.11;98979.66;5051492;28;20068;-71
2023/07/09 02:26:59;;;;;;;18.30;8.15;;;;;;;29.13;34.37;98979.16;5052839;28;20075;-70
2023/07/09 02:29:28;;;;;;;16.40;7.07;;;;;;;29.23;34.37;98968.88;5036741;28;20049;-70
2023/07/09 02:31:58;;;;;;;15.75;6.72;;;;;;;29.21;34.07;98962.09;5052887;28;20048;-71
2023/07/09 02:34:26;;;;;;;17.13;6.68;;;;;;;29.23;33.80;98960.66;5004035;28;20143;-72
2023/07/09 02:36:54;;;;;;;12.77;5.93;;;;;;;29.21;33.45;98962.91;5029822;28;20049;-71
2023/07/09 02:39:21;;;;;;;15.70;7.38;;;;;;;29.27;33.71;98967.19;4997057;28;20148;-72
2023/07/09 02:41:47;;;;;;;13.80;5.97;;;;;;;29.27;33.26;98967.19;5013642;28;20041;-71
2023/07/09 02:44:14;;;;;;;10.57;6.18;;;;;;;29.30;33.02;98963.88;4964896;28;20045;-71
2023/07/09 02:46:41;;;;;;;12.90;5.70;;;;;;;29.45;33.01;98969.09;4965756;28;20335;-71
2023/07/09 02:49:11;;;;;;;11.25;6.45;;;;;;;29.63;33.05;98966.66;4982035;28;20373;-71
2023/07/09 02:51:37;;;;;;;12.60;5.45;;;;;;;29.54;32.99;98972.78;4965892;28;20049;-71
2023/07/09 02:54:05;;;;;;;16.83;5.80;;;;;;;29.65;32.33;98961.69;4981723;28;20064;-71
2023/07/09 02:56:31;;;;;;;11.05;6.30;;;;;;;29.65;32.81;98964.44;4997800;28;20051;-71
2023/07/09 02:58:59;;;;;;;13.88;6.20;;;;;;;29.75;32.72;98967.84;4997213;28;20046;-71
2023/07/09 03:01:27;;;;;;;14.27;6.80;;;;;;;29.94;32.97;98965.09;4982582;28;20045;-72
2023/07/09 03:03:56;;;;;;;13.55;6.35;;;;;;;29.97;32.93;98965.28;4990720;28;20048;-73
2023/07/09 03:06:24;;;;;;;14.85;6.03;;;;;;;30.10;32.88;98972.72;5036472;28;20139;-71
2023/07/09 03:08:52;;;;;;;12.80;6.88;;;;;;;30.16;32.58;98959.75;5036416;28;20598;-71
2023/07/09 03:11:18;;;;;;;13.07;5.80;;;;;;;30.22;32.59;98958.56;5020231;28;20076;-70
2023/07/09 03:13:44;;;;;;;13.50;6.15;;;;;;;30.23;32.26;98968.44;5031762;28;20051;-70
2023/07/09 03:16:12;;;;;;;13.98;6.13;;;;;;;30.61;32.20;98958.91;5044324;28;20506;-71
2023/07/09 03:18:39;;;;;;;16.35;6.57;;;;;;;30.55;31.82;98958.19;5044268;28;20032;-71
2023/07/09 03:21:05;;;;;;;13.18;6.07;;;;;;;30.82;31.66;98960.16;5060889;28;20055;-70
2023/07/09 03:23:33;;;;;;;16.88;6.22;;;;;;;30.86;31.17;98953.75;5059955;28;20040;-70
2023/07/09 03:25:59;;;;;;;12.07;6.20;;;;;;;30.98;31.20;98959.53;5060558;28;20105;-71
2023/07/09 03:28:26;;;;;;;20.48;6.72;;;;;;;31.01;31.00;98956.16;5052639;28;20079;-71
2023/07/09 03:30:54;;;;;;;15.75;5.55;;;;;;;31.28;30.35;98959.97;5020080;28;20044;-70
2023/07/09 03:33:20;;;;;;;15.02;5.57;;;;;;;31.19;30.11;98962.66;5036810;28;20053;-70
2023/07/09 03:35:46;;;;;;;12.43;5.35;;;;;;;31.20;29.56;98960.72;5037116;28;20040;-70
2023/07/09 03:38:12;;;;;;;8.55;4.78;;;;;;;31.31;29.58;98973.91;5019856;28;20049;-70
2023/07/09 03:40:38;;;;;;;12.23;4.88;;;;;;;31.30;28.99;98966.81;5019356;28;20051;-70
2023/07/09 03:43:05;;;;;;;12.10;4.95;;;;;;;31.41;29.16;98968.22;5019460;28;20443;-70
2023/07/09 03:45:34;;;;;;;11.23;4.72;;;;;;;31.45;28.86;98960.97;5019902;28;20127;-70
2023/07/09 03:48:00;;;;;;;11.30;4.80;;;;;;;31.43;28.95;98965.94;5036446;28;20052;-71
2023/07/09 03:50:28;;;;;;;9.77;4.28;;;;;;;31.63;29.30;98957.25;5019124;28;20033;-71
2023/07/09 03:52:54;;;;;;;11.35;4.32;;;;;;;31.49;28.94;98959.22;5002604;28;20060;-71
2023/07/09 03:55:20;;;;;;;8.80;4.10;;;;;;;31.59;28.92;98958.16;5019669;28;20428;-70
2023/07/09 03:57:47;;;;;;;10.32;4.10;;;;;;;31.67;28.68;98960.19;5019430;28;20041;-70
2023/07/09 04:00:14;;;;;;;8.18;4.10;;;;;;;31.69;28.48;98952.44;5067535;28;20044;-70
2023/07/09 04:02:45;;;;;;;7.90;4.07;;;;;;;31.69;28.51;98950.50;5060689;28;20047;-70
2023/07/09 04:05:14;;;;;;;11.05;4.57;;;;;;;31.92;28.50;98952.16;5043751;28;20046;-70
2023/07/09 04:07:41;;;;;;;10.52;4.40;;;;;;;31.78;28.26;98953.31;5060208;28;20043;-70
2023/07/09 04:10:07;;;;;;;8.57;3.97;;;;;;;31.97;28.53;98957.50;5043280;28;20032;-70
2023/07/09 04:12:34;;;;;;;9.23;4.47;;;;;;;31.91;28.18;98953.28;5026510;28;20035;-71
2023/07/09 04:15:00;;;;;;;8.88;4.20;;;;;;;32.00;28.07;98945.91;5059460;28;20024;-70
2023/07/09 04:17:27;;;;;;;8.00;4.40;;;;;;;32.08;27.98;98956.13;5058294;28;20176;-70
2023/07/09 04:19:54;;;;;;;7.25;4.30;;;;;;;32.14;27.92;98956.81;5025437;28;20055;-72
2023/07/09 04:22:25;;;;;;;7.70;4.20;;;;;;;32.24;27.74;98954.63;5075214;28;20047;-70
2023/07/09 04:24:52;;;;;;;8.95;3.72;;;;;;;32.32;27.65;98948.34;5075124;28;20048;-72
2023/07/09 04:27:19;;;;;;;13.20;4.18;;;;;;;32.45;27.67;98950.22;5041751;28;20047;-70
2023/07/09 04:29:45;;;;;;;7.75;4.10;;;;;;;32.44;27.71;98945.81;5058048;28;20047;-69
2023/07/09 04:32:14;;;;;;;9.88;4.00;;;;;;;32.58;27.65;98940.25;5041769;28;20435;-71
2023/07/09 04:34:42;;;;;;;6.53;3.70;;;;;;;32.71;27.32;98950.31;5041790;28;20044;-70
2023/07/09 04:37:11;;;;;;;7.20;3.58;;;;;;;32.72;27.27;98945.63;5025012;28;20052;-70
2023/07/09 04:39:38;;;;;;;10.17;3.73;;;;;;;32.63;26.91;98942.81;5041748;28;20138;-70
2023/07/09 04:42:11;;;;;;;12.40;3.78;;;;;;;32.85;26.86;98940.00;5058367;28;20042;-72
2023/07/09 04:44:38;;;;;;;6.25;3.60;;;;;;;32.61;27.01;98934.91;4999096;28;20232;-71
2023/07/09 04:47:06;;;;;;;6.68;3.42;;;;;;;32.66;26.83;98943.00;4998787;28;20076;-70
2023/07/09 04:49:32;;;;;;;9.35;3.78;;;;;;;32.63;26.82;98940.06;5017992;28;20388;-70
2023/07/09 04:52:00;;;;;;;7.65;4.10;;;;;;;32.72;26.90;98934.63;5001571;28;20036;-70
2023/07/09 04:54:26;;;;;;;6.95;3.20;;;;;;;32.65;26.43;98935.09;5001476;28;20056;-71
2023/07/09 04:56:52;;;;;;;10.88;3.38;;;;;;;32.66;26.43;98931.19;5018220;28;20041;-70
2023/07/09 04:59:19;;;;;;;12.75;3.88;;;;;;;32.76;26.27;98938.34;5001428;28;20659;-70
2023/07/09 05:01:47;;;;;;;7.47;3.53;;;;;;;32.72;26.10;98935.44;5001528;28;20056;-70
2023/07/09 05:04:14;;;;;;;8.02;3.28;;;;;;;32.88;25.87;98933.06;5001232;28;20047;-70
2023/07/09 05:06:40;;;;;;;10.27;3.70;;;;;;;32.90;25.99;98934.38;5001340;28;20154;-70
2023/07/09 05:09:06;;;;;;;6.30;3.30;;;;;;;32.98;25.84;98927.28;4968898;28;20037;-70
2023/07/09 05:11:36;;;;;;;7.50;3.63;;;;;;;33.21;25.52;98931.50;5001560;28;20041;-70
2023/07/09 05:14:04;;;;;;;7.30;3.35;;;;;;;33.29;25.64;98928.75;4985261;28;20068;-70
2023/07/09 05:16:31;;;;;;;8.68;3.42;;;;;;;33.19;25.44;98928.25;5050737;28;20055;-71
2023/07/09 05:18:56;;;;;;;9.52;3.30;;;;;;;33.29;25.47;98938.97;5058825;28;20024;-72
2023/07/09 05:21:24;;;;;;;4.85;3.10;;;;;;;33.32;25.30;98913.53;5091622;28;20109;-70
2023/07/09 05:23:55;;;;;;;8.32;3.08;;;;;;;33.72;24.43;98928.78;5023560;28;20048;-70
2023/07/09 05:26:21;;;;;;;7.03;2.83;;;;;;;33.55;23.77;98931.56;5025479;28;20424;-71
2023/07/09 05:28:47;;;;;;;4.45;2.97;;;;;;;33.59;23.93;98924.25;5041695;28;20044;-70
2023/07/09 05:31:14;;;;;;;5.00;2.75;;;;;;;33.78;24.01;98924.72;5041339;28;20040;-70
2023/07/09 05:33:41;;;;;;;11.57;3.40;;;;;;;33.68;24.04;98925.03;5040697;28;20089;-70
2023/07/09 05:36:13;;;;;;;7.25;2.88;;;;;;;33.80;24.13;98917.75;5056946;28;20451;-70
2023/07/09 05:38:40;;;;;;;5.78;3.22;;;;;;;33.70;24.54;98917.28;5041047;28;20040;-70
2023/07/09 05:41:07;;;;;;;6.57;2.50;;;;;;;33.81;23.24;98924.06;5040349;28;20468;-70
2023/07/09 05:43:33;;;;;;;3.97;2.20;;;;;;;33.80;22.76;98922.44;5023770;28;20146;-72
2023/07/09 05:46:02;;;;;;;9.13;2.47;;;;;;;34.14;22.74;98922.38;5040103;28;20040;-71
2023/07/09 05:48:30;;;;;;;7.22;2.20;;;;;;;34.02;22.48;98922.25;5040387;28;20389;-71
2023/07/09 05:50:57;;;;;;;6.20;2.88;;;;;;;34.28;22.79;98922.16;5056967;28;20342;-70
2023/07/09 05:53:24;;;;;;;9.45;3.38;;;;;;;34.13;22.46;98907.81;5039871;28;20040;-71
2023/07/09 05:55:54;;;;;;;6.68;3.03;;;;;;;34.44;22.59;98918.59;5041114;28;20085;-71
2023/07/09 05:58:21;;;;;;;6.43;2.65;;;;;;;34.24;22.45;98911.00;5057642;28;20036;-71
2023/07/09 06:00:53;;;;;;;7.03;2.45;;;;;;;34.53;22.31;98913.84;5041495;28;20068;-70
2023/07/09 06:03:22;;;;;;;6.88;2.60;;;;;;;34.53;21.91;98907.50;5057882;28;20513;-70
2023/07/09 06:05:49;;;;;;;5.13;2.70;;;;;;;34.44;21.77;98909.50;5057774;28;20704;-71
2023/07/09 06:08:17;;;;;;;7.32;2.75;;;;;;;34.53;21.70;98916.59;5057789;28;20067;-70
2023/07/09 06:10:57;;;;;;;4.72;2.67;;;;;;;34.94;21.32;98922.22;5041433;28;20028;-70
2023/07/09 06:13:24;;;;;;;6.78;3.03;;;;;;;34.93;20.87;98917.03;5056199;28;20061;-71
2023/07/09 06:15:52;;;;;;;5.50;2.65;;;;;;;35.03;20.50;98920.22;5056381;28;20058;-70
2023/07/09 06:18:18;;;;;;;5.05;2.70;;;;;;;35.11;20.86;98919.34;5039409;28;20101;-70
2023/07/09 06:20:56;;;;;;;3.67;2.40;;;;;;;35.47;20.57;98914.03;5073379;28;20032;-70
2023/07/09 06:23:24;;;;;;;6.10;2.50;;;;;;;35.66;20.27;98910.78;5056643;28;20094;-70
2023/07/09 06:25:51;;;;;;;7.40;2.90;;;;;;;35.66;19.69;98910.78;5039811;28;20055;-70
2023/07/09 06:28:19;;;;;;;3.55;2.40;;;;;;;35.92;19.41;98911.38;5073362;28;20471;-70
2023/07/09 06:30:49;;;;;;;5.43;2.38;;;;;;;36.26;19.14;98912.97;5056369;28;20101;-70
2023/07/09 06:33:16;;;;;;;6.00;2.50;;;;;;;36.35;18.79;98908.16;5040003;28;20456;-70
2023/07/09 06:35:50;;;;;;;6.72;2.20;;;;;;;36.74;19.22;98905.50;5074592;28;20150;-70
2023/07/09 06:38:16;;;;;;;5.63;2.40;;;;;;;36.61;18.90;98900.31;5060472;28;20047;-70
2023/07/09 06:40:43;;;;;;;7.03;2.47;;;;;;;36.62;18.17;98899.16;5043366;28;20399;-71
2023/07/09 06:43:09;;;;;;;6.55;2.40;;;;;;;36.70;18.38;98893.53;5060078;28;20070;-70
2023/07/09 06:45:53;;;;;;;5.07;2.17;;;;;;;37.14;18.08;98892.53;5060669;28;20028;-70
2023/07/09 06:48:21;;;;;;;5.57;2.50;;;;;;;37.27;18.24;98890.59;5000913;28;20041;-70
2023/07/09 06:50:48;;;;;;;3.03;2.00;;;;;;;37.50;17.86;98899.16;5020466;28;20449;-70
2023/07/09 06:53:14;;;;;;;5.03;2.60;;;;;;;37.61;17.66;98897.50;4987465;28;20037;-70
2023/07/09 06:55:40;;;;;;;6.95;2.10;;;;;;;37.85;17.32;98884.34;5019961;28;20188;-71
2023/07/09 06:58:06;;;;;;;2.72;2.00;;;;;;;37.90;16.98;98880.50;5020096;28;20452;-70
2023/07/09 07:00:35;;;;;;;6.20;2.50;;;;;;;38.23;16.88;98883.78;5003725;28;20047;-72
2023/07/09 07:03:01;;;;;;;5.95;2.88;;;;;;;38.32;16.76;98887.19;5036666;28;20040;-70
2023/07/09 07:05:27;;;;;;;4.65;2.30;;;;;;;38.47;16.63;98870.50;5019781;28;20361;-71
2023/07/09 07:07:55;;;;;;;3.90;2.10;;;;;;;38.63;16.13;98863.00;5036419;28;20040;-70
2023/07/09 07:10:20;;;;;;;3.30;2.55;;;;;;;38.60;16.08;98860.16;4987505;28;20037;-70
2023/07/09 07:12:47;;;;;;;4.30;2.25;;;;;;;38.85;15.53;98866.28;5019975;28;20063;-71
2023/07/09 07:15:17;;;;;;;6.85;1.90;;;;;;;39.26;15.89;98866.44;5019973;28;20049;-70
2023/07/09 07:17:45;;;;;;;3.40;2.10;;;;;;;39.30;15.31;98861.75;5019877;28;20486;-71
2023/07/09 07:20:12;;;;;;;4.60;2.30;;;;;;;39.67;14.49;98856.56;4987329;28;20094;-71
2023/07/09 07:22:39;;;;;;;4.13;2.30;;;;;;;39.65;15.03;98842.22;4987062;28;20044;-71
2023/07/09 07:25:06;;;;;;;6.50;2.72;;;;;;;40.16;14.22;98855.53;5019810;28;20040;-71
2023/07/09 07:27:34;;;;;;;4.93;2.30;;;;;;;40.66;14.30;98862.69;5036259;28;20044;-70
2023/07/09 07:30:01;;;;;;;2.88;1.90;;;;;;;41.21;13.70;98861.16;4987505;28;20048;-70
2023/07/09 07:32:33;;;;;;;4.53;1.98;;;;;;;42.05;13.03;98858.56;5004164;28;20036;-70
2023/07/09 07:34:59;;;;;;;2.33;1.70;;;;;;;42.74;12.17;98855.59;5019940;28;20128;-71
2023/07/09 07:37:30;;;;;;;8.07;2.33;;;;;;;43.61;11.82;98860.03;4990791;28;20136;-72
2023/07/09 07:39:56;;;;;;;3.05;1.90;;;;;;;44.56;10.90;98855.38;5076493;28;20051;-71
2023/07/09 07:42:22;;;;;;;4.07;1.80;;;;;;;45.66;10.14;98859.50;5028249;28;20066;-71
2023/07/09 07:44:49;;;;;;;5.45;1.80;;;;;;;47.44;9.61;98853.50;5043922;28;20051;-71
2023/07/09 07:47:15;;;;;;;6.53;2.00;;;;;;;47.90;9.27;98844.44;5059056;28;20242;-72
2023/07/09 07:49:43;;;;;;;4.38;1.65;;;;;;;47.31;9.34;98855.31;5026299;28;20056;-70
2023/07/09 07:52:10;;;;;;;6.50;2.30;;;;;;;46.67;9.41;98853.56;5075860;28;20036;-71
2023/07/09 07:54:36;;;;;;;6.25;1.90;;;;;;;48.45;8.90;98853.25;5025654;28;20075;-72
2023/07/09 07:57:03;;;;;;;3.42;1.92;;;;;;;50.69;7.56;98849.59;5059022;28;20044;-71
2023/07/09 07:59:34;;;;;;;3.67;1.63;;;;;;;53.31;6.42;98858.63;5059317;28;20048;-71
2023/07/09 08:02:01;;;;;;;5.40;1.95;;;;;;;54.65;5.71;98851.16;5059776;28;20036;-70
2023/07/09 08:04:27;;;;;;;5.55;1.90;;;;;;;55.45;5.10;98838.19;5058658;28;20503;-71
2023/07/09 08:06:54;;;;;;;7.15;1.70;;;;;;;56.41;4.38;98834.28;5058773;28;20161;-72
2023/07/09 08:09:20;;;;;;;5.70;1.80;;;;;;;57.21;4.15;98835.69;5058559;28;20036;-72
2023/07/09 08:11:49;;;;;;;4.43;1.73;;;;;;;57.75;3.80;98833.53;5073111;28;20113;-72
2023/07/09 08:14:16;;;;;;;2.85;1.80;;;;;;;57.29;3.98;98828.31;5059750;28;20036;-70
2023/07/09 08:16:42;;;;;;;4.97;1.58;;;;;;;55.88;4.07;98829.19;5059399;28;20038;-72
2023/07/09 08:19:08;;;;;;;7.22;2.13;;;;;;;53.89;5.21;98813.31;5057964;28;20036;-72
2023/07/09 08:21:35;;;;;;;1.95;1.45;;;;;;;52.22;5.82;98813.47;5058791;28;20102;-71
2023/07/09 08:24:02;;;;;;;4.30;1.80;;;;;;;51.59;6.14;98799.31;5058295;28;20123;-71
2023/07/09 08:26:31;;;;;;;2.90;1.92;;;;;;;51.45;6.03;98817.53;5058090;28;20035;-71
2023/07/09 08:28:57;;;;;;;3.50;1.52;;;;;;;53.01;5.15;98814.72;5041353;28;20327;-71
2023/07/09 08:31:23;;;;;;;6.28;1.58;;;;;;;55.01;4.50;98819.84;5018195;28;20048;-71
2023/07/09 08:33:49;;;;;;;8.95;1.77;;;;;;;57.00;3.16;98807.50;5018039;28;20047;-72
2023/07/09 08:36:15;;;;;;;2.35;1.45;;;;;;;58.38;2.62;98816.28;5034579;28;20132;-72
2023/07/09 08:38:43;;;;;;;2.83;1.30;;;;;;;59.58;2.68;98811.69;4985499;28;20072;-72
2023/07/09 08:41:19;;;;;;;3.42;1.60;;;;;;;60.69;2.39;98796.69;5034487;28;20033;-73
2023/07/09 08:44:19;;;;;;;7.65;1.65;;;;;;;61.35;1.86;98804.66;5017881;28;20200;-72
2023/07/09 08:46:50;;;;;;;2.53;1.33;;;;;;;61.94;1.50;98799.41;5034257;28;20037;-72
2023/07/09 08:49:27;;;;;;;1.92;1.48;;;;;;;62.45;1.75;98795.09;5021312;28;20595;-72
2023/07/09 08:51:54;;;;;;;3.78;1.35;;;;;;;63.21;1.63;98790.19;5021130;28;20147;-73
2023/07/09 08:54:27;;;;;;;5.30;1.33;;;;;;;62.72;1.23;98788.41;5037559;28;20055;-72
2023/07/09 08:56:55;;;;;;;4.35;1.45;;;;;;;62.61;1.24;98782.75;5021067;28;20534;-72
2023/07/09 08:59:23;;;;;;;2.67;1.35;;;;;;;62.47;1.05;98772.31;5036805;28;20036;-72
2023/07/09 09:01:57;;;;;;;6.68;1.40;;;;;;;59.42;1.85;98754.97;5020920;28;20040;-73
2023/07/09 09:04:29;;;;;;;6.97;1.40;;;;;;;55.90;3.32;98748.88;5022140;28;20189;-71
2023/07/09 09:07:24;;;;;;;2.78;1.50;;;;;;;53.79;4.19;98740.66;5020900;28;20041;-70
2023/07/09 09:09:55;;;;;;;6.18;1.60;;;;;;;54.22;4.38;98737.66;5071847;28;20101;-71
2023/07/09 09:12:24;;;;;;;4.70;1.67;;;;;;;54.94;4.18;98723.41;5058160;28;20451;-72
2023/07/09 09:14:59;;;;;;;4.47;1.70;;;;;;;55.59;3.78;98734.94;5074820;28;20104;-71
2023/07/09 09:17:28;;;;;;;2.10;1.55;;;;;;;57.15;3.31;98731.97;5091689;28;20039;-72
2023/07/09 09:20:03;;;;;;;4.53;1.50;;;;;;;58.76;2.27;98732.22;5058447;28;20047;-72
2023/07/09 09:22:45;;;;;;;2.92;1.38;;;;;;;60.03;1.84;98730.34;5058429;28;20080;-72
2023/07/09 09:25:32;;;;;;;4.63;1.45;;;;;;;60.82;1.50;98728.06;5056862;28;20036;-73
2023/07/09 09:28:02;;;;;;;3.25;1.50;;;;;;;61.44;1.78;98721.81;4997361;28;20042;-73
2023/07/09 09:30:30;;;;;;;3.08;1.33;;;;;;;62.08;0.91;98729.28;5052120;28;20432;-71
2023/07/09 09:32:58;;;;;;;7.65;1.75;;;;;;;62.77;1.09;98733.66;5040000;28;20135;-72
2023/07/09 09:35:33;;;;;;;4.40;1.33;;;;;;;62.13;1.35;98719.88;5040095;28;20051;-72
2023/07/09 09:38:00;;;;;;;4.28;1.30;;;;;;;59.73;1.90;98709.84;5040262;28;20036;-72
2023/07/09 09:40:28;;;;;;;5.65;1.60;;;;;;;58.93;2.24;98708.16;5056808;28;20095;-71
2023/07/09 09:42:59;;;;;;;4.13;1.47;;;;;;;59.80;1.90;98712.25;5056723;28;20051;-72
2023/07/09 09:45:33;;;;;;;6.15;1.50;;;;;;;61.03;1.18;98717.13;5056612;28;20083;-71
2023/07/09 09:48:09;;;;;;;4.65;1.55;;;;;;;61.78;0.87;98711.84;5056944;28;20093;-72
2023/07/09 09:50:35;;;;;;;7.13;1.60;;;;;;;61.96;0.72;98710.50;5056651;28;20043;-72
2023/07/09 09:53:01;;;;;;;4.85;1.50;;;;;;;62.04;0.79;98711.47;5040002;28;20058;-72
2023/07/09 09:55:32;;;;;;;1.77;1.10;;;;;;;62.37;0.98;98710.59;5040122;28;20044;-72
2023/07/09 09:58:02;;;;;;;3.83;1.30;;;;;;;62.53;0.63;98698.19;5057798;28;20479;-72
2023/07/09 10:00:33;;;;;;;9.90;1.30;;;;;;;62.33;0.75;98705.09;5025166;28;20042;-72
2023/07/09 10:03:06;;;;;;;3.83;1.45;;;;;;;62.52;1.17;98708.13;5041440;28;20372;-72
2023/07/09 10:05:57;;;;;;;3.40;1.20;;;;;;;61.85;1.05;98699.03;5039857;28;20128;-72
2023/07/09 10:08:44;;;;;;;5.10;1.30;;;;;;;59.83;1.69;98684.63;5056669;28;20044;-72
2023/07/09 10:11:27;;;;;;;6.50;1.50;;;;;;;58.11;2.39;98687.97;5042888;28;20048;-71
2023/07/09 10:13:55;;;;;;;5.78;1.30;;;;;;;57.02;2.89;98673.59;5060507;28;20046;-72
2023/07/09 10:16:29;;;;;;;5.45;1.30;;;;;;;57.35;2.76;98677.00;5044445;28;20111;-72
2023/07/09 10:19:23;;;;;;;4.15;1.50;;;;;;;58.04;2.55;98676.94;5020706;28;20148;-72
2023/07/09 10:22:14;;;;;;;3.83;1.40;;;;;;;57.92;2.60;98660.19;5020880;28;20106;-72
2023/07/09 10:25:03;;;;;;;8.10;1.80;;;;;;;57.53;2.71;98663.25;5037198;28;20065;-72
2023/07/09 10:28:03;;;;;;;3.75;1.60;;;;;;;55.25;3.43;98658.47;5016886;28;20135;-72
2023/07/09 10:30:40;;;;;;;1.60;1.27;;;;;;;52.90;4.71;98641.19;4954009;28;20178;-72
2023/07/09 10:33:10;;;;;;;5.15;1.70;;;;;;;52.89;4.68;98638.81;4926574;28;20043;-71
2023/07/09 10:35:57;;;;;;;1.98;1.50;;;;;;;53.63;4.18;98645.16;4942760;28;20423;-71
2023/07/09 10:38:47;;;;;;;5.57;1.50;;;;;;;53.95;3.75;98650.25;4927094;28;20475;-71
2023/07/09 10:41:15;;;;;;;6.15;1.48;;;;;;;53.11;4.49;98637.53;4942784;28;20571;-72
2023/07/09 10:44:05;;;;;;;3.72;1.45;;;;;;;53.49;4.24;98640.03;4942838;28;20046;-71
2023/07/09 10:46:34;;;;;;;5.05;1.63;;;;;;;53.23;4.20;98638.66;4911036;28;20148;-72
2023/07/09 10:49:05;;;;;;;4.47;1.40;;;;;;;53.17;4.30;98635.66;4933307;28;20470;-72
2023/07/09 10:52:18;;;;;;;2.40;1.42;;;;;;;53.51;4.18;98614.78;4961867;28;20077;-72
2023/07/09 10:54:58;;;;;;;2.58;1.70;;;;;;;53.55;3.94;98626.78;4920446;29;20063;-72
2023/07/09 10:58:04;;;;;;;3.83;1.97;;;;;;;53.34;4.23;98627.69;4939584;28;20448;-71
2023/07/09 11:00:36;;;;;;;4.22;1.70;;;;;;;53.70;3.96;98622.13;5029811;28;20032;-71
2023/07/09 11:03:43;;;;;;;2.20;1.50;;;;;;;53.92;4.32;98621.97;5039691;28;20127;-72
2023/07/09 11:06:16;;;;;;;2.80;1.35;;;;;;;53.74;4.24;98628.44;5055912;28;20041;-71
2023/07/09 11:08:43;;;;;;;1.45;1.30;;;;;;;53.36;4.08;98625.94;5023342;28;20349;-72
2023/07/09 11:11:17;;;;;;;4.22;1.60;;;;;;;53.04;4.39;98611.50;5057818;28;20029;-72
2023/07/09 11:13:52;;;;;;;3.33;1.40;;;;;;;52.70;4.93;98620.13;5060702;28;20028;-72
2023/07/09 11:16:48;;;;;;;2.78;1.55;;;;;;;51.85;5.16;98613.91;5077031;28;20036;-71
2023/07/09 11:19:17;;;;;;;7.38;1.60;;;;;;;51.13;5.45;98604.63;5038375;28;20064;-72
2023/07/09 11:22:21;;;;;;;4.53;1.50;;;;;;;50.42;6.09;98615.25;5022178;28;20139;-72
2023/07/09 11:25:14;;;;;;;2.78;1.60;;;;;;;49.68;5.93;98610.84;5022581;28;20044;-73
2023/07/09 11:27:51;;;;;;;2.92;1.80;;;;;;;49.00;6.52;98604.44;5040643;28;20358;-72
2023/07/09 11:30:26;;;;;;;5.63;1.67;;;;;;;48.39;6.82;98598.53;4987517;28;20099;-72
2023/07/09 11:32:58;;;;;;;3.97;1.80;;;;;;;47.59;7.11;98595.97;5019673;28;20045;-72
2023/07/09 11:35:27;;;;;;;5.65;1.73;;;;;;;47.25;7.62;98603.81;4987124;28;20047;-71
2023/07/09 11:37:53;;;;;;;;;;;;;;;47.00;7.63;98603.34;5019668;28;20033;-71
2023/07/09 11:40:23;;;;;;;2.92;1.55;;;;;;;46.48;7.78;98596.41;5002934;28;19966;-71
2023/07/09 11:42:59;;;;;;;5.90;1.80;;;;;;;46.21;8.16;98594.78;4971005;28;20063;-71
2023/07/09 11:45:28;;;;;;;2.55;1.50;;;;;;;45.93;8.27;98590.25;4986536;28;20045;-71
2023/07/09 11:48:21;;;;;;;2.93;1.40;;;;;;;45.61;8.49;98589.75;5019190;28;20455;-71
2023/07/09 11:50:50;;;;;;;2.30;2.10;;;;;;;45.53;8.61;98594.63;5046126;28;20086;-70